createdAt,value
2023-05-11T00:00:00.989Z,12.90
2023-05-11T00:02:32.026Z,12.80
2023-05-11T00:04:59.451Z,12.80
2023-05-11T00:07:27.051Z,12.80
2023-05-11T00:09:54.618Z,12.70
2023-05-11T00:12:22.038Z,12.70
2023-05-11T00:14:49.553Z,12.70
2023-05-11T00:17:19.281Z,12.70
2023-05-11T00:19:46.760Z,12.70
2023-05-11T00:22:14.055Z,12.60
2023-05-11T00:24:41.443Z,12.60
2023-05-11T00:27:08.583Z,12.60
2023-05-11T00:29:35.787Z,12.60
2023-05-11T00:32:03.225Z,12.60
2023-05-11T00:34:30.650Z,12.60
2023-05-11T00:36:58.391Z,12.50
2023-05-11T00:39:26.680Z,12.50
2023-05-11T00:41:54.330Z,12.50
2023-05-11T00:44:21.715Z,12.50
2023-05-11T00:46:48.972Z,12.40
2023-05-11T00:49:17.565Z,12.40
2023-05-11T00:51:45.060Z,12.40
2023-05-11T00:54:15.610Z,12.50
2023-05-11T00:56:43.175Z,12.40
2023-05-11T00:59:10.589Z,12.40
2023-05-11T01:01:41.278Z,12.40
2023-05-11T01:04:09.204Z,12.40
2023-05-11T01:06:58.793Z,12.30
2023-05-11T01:09:44.763Z,12.30
2023-05-11T01:12:18.710Z,12.30
2023-05-11T01:14:54.995Z,12.30
2023-05-11T01:17:27.517Z,12.20
2023-05-11T01:20:00.854Z,12.10
2023-05-11T01:22:47.138Z,12.10
2023-05-11T01:25:27.444Z,12.00
2023-05-11T01:28:07.574Z,12.00
2023-05-11T01:30:49.000Z,12.00
2023-05-11T01:33:17.069Z,12.00
2023-05-11T01:35:50.924Z,12.00
2023-05-11T01:38:19.179Z,11.90
2023-05-11T01:40:50.904Z,11.90
2023-05-11T01:43:23.746Z,11.90
2023-05-11T01:45:52.462Z,11.80
2023-05-11T01:48:26.005Z,11.70
2023-05-11T01:50:55.134Z,11.80
2023-05-11T01:53:22.841Z,11.70
2023-05-11T01:55:50.613Z,11.60
2023-05-11T01:58:18.633Z,11.60
2023-05-11T02:00:46.297Z,11.60
2023-05-11T02:03:14.375Z,11.60
2023-05-11T02:05:42.598Z,11.60
2023-05-11T02:08:10.700Z,11.60
2023-05-11T02:10:38.798Z,11.70
2023-05-11T02:13:06.638Z,11.70
2023-05-11T02:15:36.042Z,11.60
2023-05-11T02:18:03.699Z,11.60
2023-05-11T02:20:32.190Z,11.60
2023-05-11T02:23:00.382Z,11.60
2023-05-11T02:25:28.654Z,11.70
2023-05-11T02:27:56.565Z,11.70
2023-05-11T02:30:26.041Z,11.70
2023-05-11T02:32:56.542Z,11.70
2023-05-11T02:35:25.700Z,11.60
2023-05-11T02:37:55.712Z,11.60
2023-05-11T02:40:34.058Z,11.50
2023-05-11T02:43:08.384Z,11.50
2023-05-11T02:45:36.542Z,11.50
2023-05-11T02:48:07.452Z,11.60
2023-05-11T02:50:39.392Z,11.50
2023-05-11T02:53:08.407Z,11.60
2023-05-11T02:55:35.938Z,11.60
2023-05-11T02:58:03.654Z,11.60
2023-05-11T03:00:31.146Z,11.60
2023-05-11T03:02:59.491Z,11.60
2023-05-11T03:05:27.402Z,11.50
2023-05-11T03:07:57.331Z,11.40
2023-05-11T03:10:26.097Z,11.40
2023-05-11T03:12:53.928Z,11.30
2023-05-11T03:15:21.907Z,11.40
2023-05-11T03:17:49.930Z,11.40
2023-05-11T03:20:17.876Z,11.40
2023-05-11T03:22:46.587Z,11.40
2023-05-11T03:25:15.060Z,11.90
2023-05-11T03:27:43.589Z,11.40
2023-05-11T03:30:12.160Z,11.30
2023-05-11T03:32:39.857Z,11.20
2023-05-11T03:35:07.639Z,11.20
2023-05-11T03:37:36.262Z,11.20
2023-05-11T03:40:04.400Z,11.30
2023-05-11T03:42:33.133Z,11.30
2023-05-11T03:45:01.848Z,11.30
2023-05-11T03:47:29.824Z,11.20
2023-05-11T03:49:58.397Z,11.10
2023-05-11T03:52:26.436Z,11.10
2023-05-11T03:54:53.889Z,11.10
2023-05-11T03:57:21.385Z,11.20
2023-05-11T03:59:48.645Z,11.20
2023-05-11T04:02:16.209Z,11.20
2023-05-11T04:04:43.821Z,11.30
2023-05-11T04:07:11.392Z,11.30
2023-05-11T04:09:38.949Z,11.20
2023-05-11T04:12:06.631Z,11.30
2023-05-11T04:14:34.132Z,11.20
2023-05-11T04:17:01.743Z,11.20
2023-05-11T04:19:29.127Z,11.20
2023-05-11T04:21:56.506Z,11.20
2023-05-11T04:24:23.986Z,11.10
2023-05-11T04:26:55.833Z,11.20
2023-05-11T04:29:23.279Z,11.10
2023-05-11T04:31:50.888Z,11.10
2023-05-11T04:34:18.440Z,11.20
2023-05-11T04:36:49.530Z,11.30
2023-05-11T04:39:17.716Z,11.30
2023-05-11T04:41:45.132Z,11.30
2023-05-11T04:44:12.434Z,11.40
2023-05-11T04:46:39.736Z,11.40
2023-05-11T04:49:07.574Z,11.40
2023-05-11T04:51:34.978Z,11.40
2023-05-11T04:54:02.486Z,11.30
2023-05-11T04:56:29.783Z,11.20
2023-05-11T04:58:57.032Z,11.20
2023-05-11T05:01:24.536Z,11.20
2023-05-11T05:03:51.996Z,11.20
2023-05-11T05:06:19.346Z,11.20
2023-05-11T05:08:46.740Z,11.20
2023-05-11T05:11:14.585Z,11.30
2023-05-11T05:13:42.794Z,11.40
2023-05-11T05:16:10.554Z,11.50
2023-05-11T05:18:38.167Z,11.50
2023-05-11T05:21:16.604Z,11.50
2023-05-11T05:23:57.452Z,11.50
2023-05-11T05:26:29.446Z,11.60
2023-05-11T05:28:56.930Z,11.70
2023-05-11T05:31:24.638Z,11.70
2023-05-11T05:33:51.978Z,11.80
2023-05-11T05:36:19.188Z,11.80
2023-05-11T05:38:46.667Z,11.80
2023-05-11T05:41:14.037Z,11.80
2023-05-11T05:43:41.291Z,11.80
2023-05-11T05:46:09.065Z,11.80
2023-05-11T05:48:36.600Z,11.80
2023-05-11T05:51:04.195Z,11.90
2023-05-11T05:53:32.140Z,11.80
2023-05-11T05:55:59.505Z,11.80
2023-05-11T05:58:26.982Z,11.80
2023-05-11T06:00:54.724Z,11.90
2023-05-11T06:03:22.186Z,11.90
2023-05-11T06:05:49.784Z,12.00
2023-05-11T06:08:17.279Z,12.00
2023-05-11T06:10:44.534Z,12.00
2023-05-11T06:13:11.773Z,12.00
2023-05-11T06:15:41.080Z,11.90
2023-05-11T06:18:10.780Z,11.90
2023-05-11T06:20:38.231Z,12.00
2023-05-11T06:23:05.490Z,12.00
2023-05-11T06:25:35.915Z,12.00
2023-05-11T06:28:06.695Z,12.00
2023-05-11T06:30:33.934Z,12.00
2023-05-11T06:33:01.410Z,12.00
2023-05-11T06:35:31.227Z,12.10
2023-05-11T06:37:58.881Z,12.10
2023-05-11T06:40:26.445Z,12.10
2023-05-11T06:42:53.966Z,12.10
2023-05-11T06:45:22.158Z,12.10
2023-05-11T06:47:49.860Z,12.20
2023-05-11T06:50:52.984Z,12.20
2023-05-11T06:53:21.596Z,12.20
2023-05-11T06:55:54.765Z,12.20
2023-05-11T06:58:22.281Z,12.20
2023-05-11T07:00:49.633Z,12.30
2023-05-11T07:03:17.176Z,12.30
2023-05-11T07:05:44.716Z,12.30
2023-05-11T07:08:12.055Z,12.40
2023-05-11T07:10:39.425Z,12.40
2023-05-11T07:13:06.889Z,12.50
2023-05-11T07:15:34.406Z,12.60
2023-05-11T07:18:01.788Z,12.60
2023-05-11T07:20:29.213Z,12.60
2023-05-11T07:22:59.820Z,12.70
2023-05-11T07:25:27.415Z,12.80
2023-05-11T07:27:54.884Z,12.80
2023-05-11T07:30:22.815Z,12.90
2023-05-11T07:32:50.890Z,13.00
2023-05-11T07:35:19.283Z,13.00
2023-05-11T07:37:46.977Z,13.00
2023-05-11T07:40:14.664Z,13.10
2023-05-11T07:42:42.217Z,13.30
2023-05-11T07:45:09.934Z,13.40
2023-05-11T07:47:37.575Z,13.40
2023-05-11T07:50:05.479Z,13.40
2023-05-11T07:52:33.735Z,13.40
2023-05-11T07:55:01.421Z,13.60
2023-05-11T07:57:29.286Z,13.60
2023-05-11T07:59:57.550Z,13.70
2023-05-11T08:02:25.507Z,13.80
2023-05-11T08:04:53.036Z,13.80
2023-05-11T08:07:20.572Z,13.90
2023-05-11T08:09:47.826Z,13.90
2023-05-11T08:12:15.468Z,13.90
2023-05-11T08:14:43.350Z,13.90
2023-05-11T08:17:11.045Z,14.00
2023-05-11T08:19:39.130Z,14.00
2023-05-11T08:22:06.625Z,14.10
2023-05-11T08:24:34.127Z,14.00
2023-05-11T08:27:01.591Z,14.10
2023-05-11T08:29:29.109Z,14.20
2023-05-11T08:31:56.748Z,14.20
2023-05-11T08:34:25.263Z,14.20
2023-05-11T08:36:55.244Z,14.20
2023-05-11T08:39:43.238Z,14.30
2023-05-11T08:42:13.970Z,14.40
2023-05-11T08:44:43.082Z,14.50
2023-05-11T08:47:22.776Z,14.70
2023-05-11T08:49:54.869Z,14.90
2023-05-11T08:52:22.512Z,15.10
2023-05-11T08:54:49.723Z,15.20
2023-05-11T08:57:17.748Z,15.40
2023-05-11T08:59:48.471Z,15.50
2023-05-11T09:02:19.424Z,15.50
2023-05-11T09:04:48.988Z,15.50
2023-05-11T09:07:18.153Z,15.40
2023-05-11T09:09:46.121Z,15.40
2023-05-11T09:12:13.687Z,15.30
2023-05-11T09:14:41.110Z,15.30
2023-05-11T09:17:09.001Z,15.20
2023-05-11T09:19:36.453Z,15.20
2023-05-11T09:22:05.425Z,15.10
2023-05-11T09:24:32.892Z,14.90
2023-05-11T09:27:07.188Z,15.20
2023-05-11T09:29:34.674Z,15.30
2023-05-11T09:32:02.035Z,15.40
2023-05-11T09:34:29.333Z,15.20
2023-05-11T09:36:57.317Z,15.20
2023-05-11T09:39:38.303Z,15.30
2023-05-11T09:42:19.433Z,15.30
2023-05-11T09:44:47.627Z,15.30
2023-05-11T09:47:16.676Z,15.20
2023-05-11T09:49:44.871Z,15.30
2023-05-11T09:52:13.878Z,15.30
2023-05-11T09:54:45.397Z,15.30
2023-05-11T09:57:42.335Z,15.30
2023-05-11T10:00:14.519Z,15.30
2023-05-11T10:02:41.990Z,15.40
2023-05-11T10:05:13.258Z,15.40
2023-05-11T10:07:40.652Z,15.40
2023-05-11T10:10:09.866Z,15.40
2023-05-11T10:12:40.519Z,15.40
2023-05-11T10:15:09.017Z,15.50
2023-05-11T10:17:37.170Z,15.60
2023-05-11T10:20:05.722Z,15.70
2023-05-11T10:22:33.615Z,15.80
2023-05-11T10:25:00.915Z,16.00
2023-05-11T10:27:28.723Z,16.00
2023-05-11T10:29:58.353Z,16.00
2023-05-11T10:32:26.056Z,16.10
2023-05-11T10:34:54.118Z,16.30
2023-05-11T10:37:21.511Z,16.50
2023-05-11T10:39:50.685Z,16.80
2023-05-11T10:42:24.445Z,16.90
2023-05-11T10:44:51.660Z,17.20
2023-05-11T10:47:27.454Z,17.50
2023-05-11T10:50:00.912Z,17.70
2023-05-11T10:52:31.455Z,17.60
2023-05-11T10:55:14.035Z,17.30
2023-05-11T10:57:53.011Z,17.00
2023-05-11T11:00:35.853Z,17.00
2023-05-11T11:03:13.187Z,16.80
2023-05-11T11:05:41.041Z,16.80
2023-05-11T11:08:09.614Z,16.90
2023-05-11T11:10:41.070Z,17.00
2023-05-11T11:13:10.593Z,16.90
2023-05-11T11:15:56.889Z,16.80
2023-05-11T11:18:27.968Z,16.70
2023-05-11T11:20:56.260Z,16.60
2023-05-11T11:23:40.267Z,16.40
2023-05-11T11:26:08.558Z,16.20
2023-05-11T11:28:54.065Z,16.10
2023-05-11T11:31:25.638Z,16.00
2023-05-11T11:33:53.523Z,16.00
2023-05-11T11:36:40.910Z,15.90
2023-05-11T11:39:08.311Z,15.90
2023-05-11T11:41:38.125Z,15.90
2023-05-11T11:44:05.406Z,15.90
2023-05-11T11:46:32.953Z,15.70
2023-05-11T11:49:08.550Z,15.50
2023-05-11T11:51:40.528Z,15.10
2023-05-11T11:54:08.959Z,14.80
2023-05-11T11:56:38.958Z,14.40
2023-05-11T11:59:10.380Z,14.00
2023-05-11T12:01:39.218Z,13.70
2023-05-11T12:04:20.424Z,13.40
2023-05-11T12:06:54.507Z,13.30
2023-05-11T12:09:22.540Z,13.10
2023-05-11T12:11:51.105Z,13.00
2023-05-11T12:14:18.758Z,12.90
2023-05-11T12:17:02.095Z,12.90
2023-05-11T12:19:30.904Z,12.90
2023-05-11T12:21:58.405Z,13.00
2023-05-11T12:24:26.448Z,13.10
2023-05-11T12:26:55.851Z,13.10
2023-05-11T12:29:23.133Z,13.10
2023-05-11T12:31:50.676Z,13.10
2023-05-11T12:34:18.850Z,13.20
2023-05-11T12:36:46.855Z,13.20
2023-05-11T12:39:21.709Z,13.10
2023-05-11T12:41:50.079Z,13.10
2023-05-11T12:44:18.341Z,12.90
2023-05-11T12:46:47.242Z,13.10
2023-05-11T12:51:52.154Z,13.10
2023-05-11T12:54:30.020Z,13.00
2023-05-11T12:56:58.060Z,13.00
2023-05-11T12:59:25.409Z,12.80
2023-05-11T13:01:52.995Z,12.80
2023-05-11T13:04:28.666Z,12.80
2023-05-11T13:06:55.915Z,12.80
2023-05-11T13:09:26.558Z,12.90
2023-05-11T13:12:12.853Z,13.00
2023-05-11T13:14:40.488Z,13.10
2023-05-11T13:17:08.491Z,13.20
2023-05-11T13:19:39.404Z,13.30
2023-05-11T13:22:07.312Z,13.30
2023-05-11T13:24:35.023Z,13.30
2023-05-11T13:27:02.263Z,13.30
2023-05-11T13:29:29.868Z,13.30
2023-05-11T13:31:57.512Z,13.30
2023-05-11T13:34:25.356Z,13.20
2023-05-11T13:36:52.862Z,13.30
2023-05-11T13:39:20.652Z,13.30
2023-05-11T13:41:48.032Z,13.20
2023-05-11T13:44:15.559Z,13.30
2023-05-11T13:46:43.189Z,13.30
2023-05-11T13:49:10.595Z,13.30
2023-05-11T13:51:37.841Z,13.30
2023-05-11T13:54:05.151Z,13.30
2023-05-11T13:56:34.248Z,13.30
2023-05-11T13:59:01.741Z,13.40
2023-05-11T14:01:29.199Z,13.40
2023-05-11T14:03:57.044Z,13.40
2023-05-11T14:06:25.202Z,13.40
2023-05-11T14:08:55.309Z,13.50
2023-05-11T14:11:23.139Z,13.50
2023-05-11T14:13:51.336Z,13.60
2023-05-11T14:16:19.802Z,13.60
2023-05-11T14:18:47.183Z,13.70
2023-05-11T14:21:14.504Z,13.70
2023-05-11T14:23:49.950Z,13.80
2023-05-11T14:26:25.301Z,13.90
2023-05-11T14:28:52.781Z,14.00
2023-05-11T14:31:20.712Z,14.10
2023-05-11T14:33:47.991Z,14.20
2023-05-11T14:36:16.113Z,14.50
2023-05-11T14:38:44.018Z,15.20
2023-05-11T14:41:14.849Z,15.80
2023-05-11T14:43:43.372Z,15.90
2023-05-11T14:46:10.940Z,15.90
2023-05-11T14:48:38.550Z,15.90
2023-05-11T14:51:06.509Z,15.90
2023-05-11T14:53:34.262Z,15.80
2023-05-11T14:56:01.955Z,15.70
2023-05-11T14:58:29.559Z,16.00
2023-05-11T15:00:57.165Z,16.20
2023-05-11T15:03:25.290Z,16.30
2023-05-11T15:05:52.751Z,16.40
2023-05-11T15:08:29.769Z,16.30
2023-05-11T15:10:58.638Z,16.10
2023-05-11T15:13:26.311Z,16.00
2023-05-11T15:15:53.784Z,15.90
2023-05-11T15:18:21.869Z,15.80
2023-05-11T15:20:49.426Z,15.80
2023-05-11T15:23:17.193Z,15.70
2023-05-11T15:25:45.370Z,15.70
2023-05-11T15:28:13.318Z,15.60
2023-05-11T15:30:43.810Z,15.60
2023-05-11T15:33:11.292Z,15.70
2023-05-11T15:35:43.708Z,15.70
2023-05-11T15:38:12.459Z,15.70
2023-05-11T15:40:40.304Z,15.70
2023-05-11T15:43:07.996Z,15.80
2023-05-11T15:45:35.372Z,15.70
2023-05-11T15:48:02.777Z,15.80
2023-05-11T15:50:30.357Z,15.70
2023-05-11T15:52:57.748Z,15.70
2023-05-11T15:55:25.607Z,15.70
2023-05-11T15:57:53.348Z,15.70
2023-05-11T16:00:21.098Z,15.70
2023-05-11T16:02:49.473Z,15.70
2023-05-11T16:05:17.257Z,15.60
2023-05-11T16:07:44.701Z,15.60
2023-05-11T16:10:12.143Z,15.70
2023-05-11T16:12:39.701Z,15.70
2023-05-11T16:15:07.552Z,15.80
2023-05-11T16:17:34.792Z,15.80
2023-05-11T16:20:03.508Z,15.80
2023-05-11T16:22:31.550Z,15.90
2023-05-11T16:24:59.073Z,16.00
2023-05-11T16:27:27.741Z,16.00
2023-05-11T16:29:55.046Z,16.10
2023-05-11T16:32:22.496Z,16.10
2023-05-11T16:34:49.756Z,16.20
2023-05-11T16:37:16.838Z,16.10
2023-05-11T16:39:44.670Z,16.00
2023-05-11T16:42:12.132Z,15.90
2023-05-11T16:44:39.487Z,15.80
2023-05-11T16:47:06.827Z,15.70
2023-05-11T16:49:34.612Z,15.70
2023-05-11T16:52:01.874Z,15.70
2023-05-11T16:54:29.196Z,15.70
2023-05-11T16:56:56.790Z,15.60
2023-05-11T16:59:24.162Z,15.60
2023-05-11T17:01:51.445Z,15.50
2023-05-11T17:04:18.797Z,15.50
2023-05-11T17:06:46.308Z,15.60
2023-05-11T17:09:13.652Z,15.50
2023-05-11T17:11:40.952Z,15.50
2023-05-11T17:14:08.365Z,15.50
2023-05-11T17:16:35.842Z,15.50
2023-05-11T17:19:03.543Z,15.60
2023-05-11T17:21:30.975Z,15.60
2023-05-11T17:23:58.310Z,15.70
2023-05-11T17:26:35.461Z,15.70
2023-05-11T17:29:11.073Z,15.60
2023-05-11T17:31:38.561Z,15.60
2023-05-11T17:34:07.875Z,15.70
2023-05-11T17:36:35.592Z,15.80
2023-05-11T17:39:02.899Z,15.80
2023-05-11T17:41:30.257Z,15.80
2023-05-11T17:43:58.292Z,15.70
2023-05-11T17:46:26.885Z,15.70
2023-05-11T17:48:55.790Z,15.60
2023-05-11T17:51:23.121Z,15.50
2023-05-11T17:53:50.426Z,15.50
2023-05-11T17:56:17.746Z,15.50
2023-05-11T17:58:45.434Z,15.40
2023-05-11T18:01:15.919Z,15.30
2023-05-11T18:03:43.584Z,15.30
2023-05-11T18:06:10.988Z,15.30
2023-05-11T18:08:38.422Z,15.30
2023-05-11T18:11:07.507Z,15.20
2023-05-11T18:13:35.578Z,15.20
2023-05-11T18:16:04.140Z,15.20
2023-05-11T18:18:36.328Z,15.10
2023-05-11T18:21:07.432Z,15.10
2023-05-11T18:23:35.293Z,15.00
2023-05-11T18:26:03.572Z,15.00
2023-05-11T18:28:31.102Z,14.90
2023-05-11T18:30:58.354Z,14.90
2023-05-11T18:33:25.772Z,14.90
2023-05-11T18:35:53.600Z,14.80
2023-05-11T18:38:21.152Z,14.80
2023-05-11T18:40:49.520Z,14.70
2023-05-11T18:43:16.881Z,14.70
2023-05-11T18:45:45.876Z,14.70
2023-05-11T18:48:13.530Z,14.70
2023-05-11T18:50:45.106Z,14.70
2023-05-11T18:53:13.164Z,14.70
2023-05-11T18:55:51.967Z,14.70
2023-05-11T18:58:20.949Z,14.70
2023-05-11T19:00:50.166Z,14.70
2023-05-11T19:03:19.445Z,14.70
2023-05-11T19:05:47.520Z,14.60
2023-05-11T19:08:17.084Z,14.60
2023-05-11T19:10:48.222Z,14.50
2023-05-11T19:13:23.016Z,14.50
2023-05-11T19:15:54.204Z,14.50
2023-05-11T19:18:24.635Z,14.50
2023-05-11T19:20:52.888Z,14.40
2023-05-11T19:23:20.997Z,14.50
2023-05-11T19:25:48.473Z,14.50
2023-05-11T19:28:16.059Z,14.50
2023-05-11T19:30:44.372Z,14.40
2023-05-11T19:33:12.219Z,14.40
2023-05-11T19:35:40.588Z,13.80
2023-05-11T19:38:11.066Z,14.30
2023-05-11T19:40:45.840Z,14.30
2023-05-11T19:43:14.289Z,14.30
2023-05-11T19:45:44.181Z,14.30
2023-05-11T19:48:12.627Z,14.30
2023-05-11T19:50:40.702Z,14.30
2023-05-11T19:53:08.113Z,14.30
2023-05-11T19:55:35.596Z,14.20
2023-05-11T19:58:03.452Z,14.20
2023-05-11T20:00:30.876Z,14.20
2023-05-11T20:02:58.887Z,14.20
2023-05-11T20:05:26.275Z,14.20
2023-05-11T20:07:54.817Z,14.10
2023-05-11T20:10:22.866Z,14.10
2023-05-11T20:12:51.241Z,14.10
2023-05-11T20:15:20.288Z,14.00
2023-05-11T20:17:49.009Z,13.90
2023-05-11T20:20:16.593Z,13.90
2023-05-11T20:22:44.392Z,13.90
2023-05-11T20:25:18.258Z,13.80
2023-05-11T20:27:46.540Z,13.80
2023-05-11T20:30:14.603Z,13.70
2023-05-11T20:35:15.936Z,13.60
2023-05-11T20:37:43.321Z,13.60
2023-05-11T20:40:10.894Z,13.60
2023-05-11T20:42:38.569Z,13.50
2023-05-11T20:45:07.648Z,13.50
2023-05-11T20:47:35.231Z,13.50
2023-05-11T20:50:02.754Z,13.40
2023-05-11T20:52:30.251Z,13.30
2023-05-11T20:54:57.649Z,13.30
2023-05-11T20:57:25.675Z,13.20
2023-05-11T21:02:27.507Z,13.10
2023-05-11T21:05:01.517Z,13.00
2023-05-11T21:07:29.070Z,13.00
2023-05-11T21:09:57.068Z,12.90
2023-05-11T21:12:24.355Z,12.90
2023-05-11T21:14:51.887Z,12.90
2023-05-11T21:17:19.595Z,12.80
2023-05-11T21:19:48.021Z,12.80
2023-05-11T21:22:16.044Z,12.80
2023-05-11T21:24:43.544Z,12.80
2023-05-11T21:27:11.726Z,12.80
2023-05-11T21:29:39.111Z,12.80
2023-05-11T21:32:06.833Z,12.80
2023-05-11T21:34:34.156Z,12.80
2023-05-11T21:37:02.648Z,12.80
2023-05-11T21:39:30.468Z,12.70
2023-05-11T21:41:58.595Z,12.70
2023-05-11T21:44:26.220Z,12.70
2023-05-11T21:46:54.029Z,12.80
2023-05-11T21:49:21.292Z,12.80
2023-05-11T21:51:48.690Z,12.70
2023-05-11T21:54:16.457Z,12.70
2023-05-11T21:56:43.770Z,12.70
2023-05-11T21:59:11.370Z,12.70
2023-05-11T22:01:39.344Z,12.70
2023-05-11T22:04:06.603Z,12.60
2023-05-11T22:06:34.304Z,12.70
2023-05-11T22:09:02.559Z,12.60
2023-05-11T22:11:29.810Z,12.60
2023-05-11T22:13:57.050Z,12.60
2023-05-11T22:16:24.750Z,12.60
2023-05-11T22:18:52.297Z,12.60
2023-05-11T22:21:19.450Z,12.50
2023-05-11T22:23:46.583Z,12.50
2023-05-11T22:26:13.821Z,12.50
2023-05-11T22:28:41.391Z,12.40
2023-05-11T22:31:09.335Z,12.40
2023-05-11T22:33:36.637Z,12.40
2023-05-11T22:36:03.952Z,12.40
2023-05-11T22:38:32.694Z,12.40
2023-05-11T22:41:00.276Z,12.40
2023-05-11T22:43:27.656Z,12.40
2023-05-11T22:45:54.949Z,12.30
2023-05-11T22:48:22.258Z,12.30
2023-05-11T22:50:49.583Z,12.30
2023-05-11T22:53:19.120Z,12.30
2023-05-11T22:55:46.609Z,12.30
2023-05-11T22:58:14.619Z,12.20
2023-05-11T23:00:43.232Z,12.20
2023-05-11T23:03:10.684Z,12.20
2023-05-11T23:05:38.285Z,12.20
2023-05-11T23:08:05.574Z,12.20
2023-05-11T23:10:33.125Z,12.20
2023-05-11T23:13:00.448Z,12.10
2023-05-11T23:15:27.716Z,12.10
2023-05-11T23:17:55.065Z,12.10
2023-05-11T23:20:22.838Z,12.00
2023-05-11T23:22:50.102Z,12.10
2023-05-11T23:25:17.537Z,12.00
2023-05-11T23:27:47.605Z,12.00
2023-05-11T23:30:19.812Z,12.00
2023-05-11T23:32:48.211Z,12.00
2023-05-11T23:35:15.973Z,11.90
2023-05-11T23:37:43.280Z,11.90
2023-05-11T23:40:10.763Z,11.90
2023-05-11T23:42:38.274Z,11.80
2023-05-11T23:45:07.934Z,11.80
2023-05-11T23:47:35.761Z,11.80
2023-05-11T23:50:03.148Z,11.80
2023-05-11T23:52:30.458Z,11.80
2023-05-11T23:54:57.998Z,11.80
2023-05-11T23:57:25.339Z,11.80
2023-05-11T23:59:52.589Z,11.70
